Map

Track Data

SID SEASON NUMBER BASIN SUBBASIN NAME ISO_TIME NATURE LAT LON WMO_WIND WMO_PRES WMO_AGENCY TRACK_TYPE DIST2LAND LANDFALL IFLAG USA_AGENCY USA_ATCF_ID USA_LAT USA_LON USA_RECORD USA_STATUS USA_WIND USA_PRES USA_SSHS USA_R34_NE USA_R34_SE USA_R34_SW USA_R34_NW USA_R50_NE USA_R50_SE USA_R50_SW USA_R50_NW USA_R64_NE USA_R64_SE USA_R64_SW USA_R64_NW USA_POCI USA_ROCI USA_RMW USA_EYE TOKYO_LAT TOKYO_LON TOKYO_GRADE TOKYO_WIND TOKYO_PRES TOKYO_R50_DIR TOKYO_R50_LONG TOKYO_R50_SHORT TOKYO_R30_DIR TOKYO_R30_LONG TOKYO_R30_SHORT TOKYO_LAND CMA_LAT CMA_LON CMA_CAT CMA_WIND CMA_PRES HKO_LAT HKO_LON HKO_CAT HKO_WIND HKO_PRES NEWDELHI_LAT NEWDELHI_LON NEWDELHI_GRADE NEWDELHI_WIND NEWDELHI_PRES NEWDELHI_CI NEWDELHI_DP NEWDELHI_POCI REUNION_LAT REUNION_LON REUNION_TYPE REUNION_WIND REUNION_PRES REUNION_TNUM REUNION_CI REUNION_RMW REUNION_R34_NE REUNION_R34_SE REUNION_R34_SW REUNION_R34_NW REUNION_R50_NE REUNION_R50_SE REUNION_R50_SW REUNION_R50_NW REUNION_R64_NE REUNION_R64_SE REUNION_R64_SW REUNION_R64_NW BOM_LAT BOM_LON BOM_TYPE BOM_WIND BOM_PRES BOM_TNUM BOM_CI BOM_RMW BOM_R34_NE BOM_R34_SE BOM_R34_SW BOM_R34_NW BOM_R50_NE BOM_R50_SE BOM_R50_SW BOM_R50_NW BOM_R64_NE BOM_R64_SE BOM_R64_SW BOM_R64_NW BOM_ROCI BOM_POCI BOM_EYE BOM_POS_METHOD BOM_PRES_METHOD NADI_LAT NADI_LON NADI_CAT NADI_WIND NADI_PRES WELLINGTON_LAT WELLINGTON_LON WELLINGTON_WIND WELLINGTON_PRES DS824_LAT DS824_LON DS824_STAGE DS824_WIND DS824_PRES TD9636_LAT TD9636_LON TD9636_STAGE TD9636_WIND TD9636_PRES TD9635_LAT TD9635_LON TD9635_WIND TD9635_PRES TD9635_ROCI NEUMANN_LAT NEUMANN_LON NEUMANN_CLASS NEUMANN_WIND NEUMANN_PRES MLC_LAT MLC_LON MLC_CLASS MLC_WIND MLC_PRES USA_GUST BOM_GUST BOM_GUST_PER REUNION_GUST REUNION_GUST_PER USA_SEAHGT USA_SEARAD_NE USA_SEARAD_SE USA_SEARAD_SW USA_SEARAD_NW STORM_SPEED STORM_DIR
1934345S09071 1935 85 SI MM NOT_NAMED 1934-12-11 00:00:00 TS -8.50000 71.2000 main 1913 1913 _________O____ -1 -8.50000 71.2000 TC 25 5 217
1934345S09071 1935 85 SI MM NOT_NAMED 1934-12-11 03:00:00 TS -8.69751 71.0500 main 1924 1893 _________P____ -1 -8.69751 71.0500 TC 25 5 216
1934345S09071 1935 85 SI MM NOT_NAMED 1934-12-11 06:00:00 TS -8.90000 70.9000 main 1893 1870 _________O____ -1 -8.90000 70.9000 TC 25 5 216
1934345S09071 1935 85 SI MM NOT_NAMED 1934-12-11 09:00:00 TS -9.10749 70.7500 main 1870 1838 _________P____ -1 -9.10749 70.7500 TC 25 5 216
1934345S09071 1935 85 SI MM NOT_NAMED 1934-12-11 12:00:00 TS -9.30000 70.6000 main 1838 1823 _________O____ -1 -9.30000 70.6000 TC 25 5 220
1934345S09071 1935 85 SI MM NOT_NAMED 1934-12-11 15:00:00 TS -9.45749 70.4500 main 1807 1791 _________P____ -1 -9.45749 70.4500 TC 25 4 224
1934345S09071 1935 85 SI MM NOT_NAMED 1934-12-11 18:00:00 TS -9.60000 70.3000 main 1791 1776 _________O____ -1 -9.60000 70.3000 TC 25 4 225
1934345S09071 1935 85 SI MM NOT_NAMED 1934-12-11 21:00:00 TS -9.74248 70.1575 main 1776 1744 _________P____ -1 -9.74248 70.1575 TC 25 4 224
1934345S09071 1935 85 SI MM NOT_NAMED 1934-12-12 00:00:00 TS -9.90000 70.0000 main 1744 1713 _________O____ -1 -9.90000 70.0000 TC 25 5 225
1934345S09071 1935 85 SI MM NOT_NAMED 1934-12-12 03:00:00 TS -10.0850 69.8075 main 1713 1682 _________P____ -1 -10.0850 69.8075 TC 25 6 225
1934345S09071 1935 85 SI MM NOT_NAMED 1934-12-12 06:00:00 TS -10.3000 69.6000 main 1682 1650 _________O____ -1 -10.3000 69.6000 TC 25 6 221
1934345S09071 1935 85 SI MM NOT_NAMED 1934-12-12 09:00:00 TS -10.5500 69.3925 main 1650 1612 _________P____ -1 -10.5500 69.3925 TC 25 6 218
1934345S09071 1935 85 SI MM NOT_NAMED 1934-12-12 12:00:00 TS -10.8000 69.2000 main 1612 1589 _________O____ -1 -10.8000 69.2000 TC 25 6 217
1934345S09071 1935 85 SI MM NOT_NAMED 1934-12-12 15:00:00 TS -11.0075 69.0424 main 1581 1558 _________P____ -1 -11.0075 69.0424 TC 25 5 216
1934345S09071 1935 85 SI MM NOT_NAMED 1934-12-12 18:00:00 TS -11.2000 68.9000 main 1558 1535 _________O____ -1 -11.2000 68.9000 TC 25 4 215
1934345S09071 1935 85 SI MM NOT_NAMED 1934-12-12 21:00:00 TS -11.3699 68.7798 main 1535 1504 _________P____ -1 -11.3699 68.7798 TC 25 5 216
1934345S09071 1935 85 SI MM NOT_NAMED 1934-12-13 00:00:00 TS -11.6000 68.6000 main 1504 1457 _________O____ -1 -11.6000 68.6000 TC 25 8 219
1934345S09071 1935 85 SI MM NOT_NAMED 1934-12-13 03:00:00 TS -11.9700 68.2801 main 1450 1387 _________P____ -1 -11.9700 68.2801 TC 25 11 221
1934345S09071 1935 85 SI MM NOT_NAMED 1934-12-13 06:00:00 TS -12.4000 67.9000 main 1387 1334 _________O____ -1 -12.4000 67.9000 TC 25 11 221
1934345S09071 1935 85 SI MM NOT_NAMED 1934-12-13 09:00:00 TS -12.8000 67.5424 main 1325 1272 _________P____ -1 -12.8000 67.5424 TC 25 11 220
1934345S09071 1935 85 SI MM NOT_NAMED 1934-12-13 12:00:00 TS -13.2000 67.2000 main 1272 1219 _________O____ -1 -13.2000 67.2000 TC 25 10 218
1934345S09071 1935 85 SI MM NOT_NAMED 1934-12-13 15:00:00 TS -13.5999 66.8924 main 1219 1166 _________P____ -1 -13.5999 66.8924 TC 25 10 216
1934345S09071 1935 85 SI MM NOT_NAMED 1934-12-13 18:00:00 TS -14.0000 66.6000 main 1166 1113 _________O____ -1 -14.0000 66.6000 TC 25 10 216
1934345S09071 1935 85 SI MM NOT_NAMED 1934-12-13 21:00:00 TS -14.4150 66.2850 main 1113 1061 _________P____ -1 -14.4150 66.2850 TC 25 10 216
1934345S09071 1935 85 SI MM NOT_NAMED 1934-12-14 00:00:00 TS -14.8000 66.0000 main 1061 1024 _________O____ -1 -14.8000 66.0000 TC 25 9 215
1934345S09071 1935 85 SI MM NOT_NAMED 1934-12-14 03:00:00 TS -15.1149 65.7848 main 1024 987 _________P____ -1 -15.1149 65.7848 TC 25 7 213
1934345S09071 1935 85 SI MM NOT_NAMED 1934-12-14 06:00:00 TS -15.4000 65.6000 main 987 951 _________O____ -1 -15.4000 65.6000 TC 25 7 212
1934345S09071 1935 85 SI MM NOT_NAMED 1934-12-14 09:00:00 TS -15.6925 65.4074 main 951 915 _________P____ -1 -15.6925 65.4074 TC 25 7 213
1934345S09071 1935 85 SI MM NOT_NAMED 1934-12-14 12:00:00 TS -16.0000 65.2000 main 915 880 _________O____ -1 -16.0000 65.2000 TC 25 8 213
1934345S09071 1935 85 SI MM NOT_NAMED 1934-12-14 15:00:00 TS -16.3500 64.9575 main 880 830 _________P____ -1 -16.3500 64.9575 TC 25 9 214
1934345S09071 1935 85 SI MM NOT_NAMED 1934-12-14 18:00:00 TS -16.7000 64.7000 main 830 796 _________O____ -1 -16.7000 64.7000 TC 25 8 217
1934345S09071 1935 85 SI MM NOT_NAMED 1934-12-14 21:00:00 TS -16.9924 64.4573 main 796 752 _________P____ -1 -16.9924 64.4573 TC 25 8 219
1934345S09071 1935 85 SI MM NOT_NAMED 1934-12-15 00:00:00 TS -17.3000 64.2000 main 752 704 _________O____ -1 -17.3000 64.2000 TC 25 9 217
1934345S09071 1935 85 SI MM NOT_NAMED 1934-12-15 03:00:00 TS -17.6775 63.9074 main 704 656 _________P____ -1 -17.6775 63.9074 TC 25 10 216
1934345S09071 1935 85 SI MM NOT_NAMED 1934-12-15 06:00:00 TS -18.1000 63.6000 main 656 610 _________O____ -1 -18.1000 63.6000 TC 25 11 214
1934345S09071 1935 85 SI MM NOT_NAMED 1934-12-15 09:00:00 TS -18.5575 63.2925 main 607 563 _________P____ -1 -18.5575 63.2925 TC 25 11 212
1934345S09071 1935 85 SI MM NOT_NAMED 1934-12-15 12:00:00 TS -19.0000 63.0000 main 563 524 _________O____ -1 -19.0000 63.0000 TC 25 10 213
1934345S09071 1935 85 SI MM NOT_NAMED 1934-12-15 15:00:00 TS -19.3575 62.7348 main 522 495 _________P____ -1 -19.3575 62.7348 TC 25 8 214
1934345S09071 1935 85 SI MM NOT_NAMED 1934-12-15 18:00:00 TS -19.7000 62.5000 main 495 470 _________O____ -1 -19.7000 62.5000 TC 25 9 210
1934345S09071 1935 85 SI MM NOT_NAMED 1934-12-15 21:00:00 TS -20.1150 62.2775 main 470 448 _________P____ -1 -20.1150 62.2775 TC 25 9 205
1934345S09071 1935 85 SI MM NOT_NAMED 1934-12-16 00:00:00 TS -20.5000 62.1000 main 448 438 _________O____ -1 -20.5000 62.1000 TC 25 7 204
1934345S09071 1935 85 SI MM NOT_NAMED 1934-12-16 03:00:00 TS -20.7650 61.9774 main 440 430 _________P____ -1 -20.7650 61.9774 TC 25 5 200
1934345S09071 1935 85 SI MM NOT_NAMED 1934-12-16 06:00:00 TS -21.0000 61.9000 main 433 427 _________O____ -1 -21.0000 61.9000 TC 25 5 194
1934345S09071 1935 85 SI MM NOT_NAMED 1934-12-16 09:00:00 TS -21.2850 61.8350 main 430 430 _________P____ -1 -21.2850 61.8350 TC 25 6 189
1934345S09071 1935 85 SI MM NOT_NAMED 1934-12-16 12:00:00 TS -21.6000 61.8000 main 439 439 _________O____ -1 -21.6000 61.8000 TC 25 7 185
1934345S09071 1935 85 SI MM NOT_NAMED 1934-12-16 15:00:00 TS -21.9425 61.7776 main 451 451 _________P____ -1 -21.9425 61.7776 TC 25 7 0
1934345S09071 1935 85 SI MM NOT_NAMED 1934-12-16 18:00:00 TS -22.3000 61.8000 main 469 469 _________O____ -1 -22.3000 61.8000 TC 25 7 173
1934345S09071 1935 85 SI MM NOT_NAMED 1934-12-16 21:00:00 TS -22.6575 61.8775 main 498 498 _________P____ -1 -22.6575 61.8775 TC 25 7 165
1934345S09071 1935 85 SI MM NOT_NAMED 1934-12-17 00:00:00 TS -23.0000 62.0000 main 524 524 _________O____ -1 -23.0000 62.0000 TC 25 7 160
1934345S09071 1935 85 SI MM NOT_NAMED 1934-12-17 03:00:00 TS -23.3150 62.1425 main 551 551 _________P____ -1 -23.3150 62.1425 TC 25 7 155
1934345S09071 1935 85 SI MM NOT_NAMED 1934-12-17 06:00:00 TS -23.6000 62.3000 main 587 587 _________O____ -1 -23.6000 62.3000 TC 25 6 152
1934345S09071 1935 85 SI MM NOT_NAMED 1934-12-17 09:00:00 TS -23.8575 62.4501 main 623 623 _________P____ -1 -23.8575 62.4501 TC 25 6 151
1934345S09071 1935 85 SI MM NOT_NAMED 1934-12-17 12:00:00 TS -24.1000 62.6000 main 644 644 _________O____ -1 -24.1000 62.6000 TC 25 6 151
1934345S09071 1935 85 SI MM NOT_NAMED 1934-12-17 15:00:00 TS -24.3575 62.7500 main 681 681 _________P____ -1 -24.3575 62.7500 TC 25 6 151
1934345S09071 1935 85 SI MM NOT_NAMED 1934-12-17 18:00:00 TS -24.6000 62.9000 main 703 703 _________O____ -1 -24.6000 62.9000 TC 25 5 149
1934345S09071 1935 85 SI MM NOT_NAMED 1934-12-17 21:00:00 TS -24.8100 63.0499 main 725 725 _________P____ -1 -24.8100 63.0499 TC 25 5 146
1934345S09071 1935 85 SI MM NOT_NAMED 1934-12-18 00:00:00 TS -25.0000 63.2000 main 755 _________O____ -1 -25.0000 63.2000 TC 25 5 144

About IBTrACS Database

This database is a web-friendly format of International Best Track Archive for Climate Stewardship (IBTrACS), a global best track data archive curated by NOAA dating back to 1842.

Updated: 2021-10-21